Climatologie pour Saint-Brevin les Pins
Jour • Résumé pour décembre 7, 2017 Système :  Anglais    Métrique   Mixte
« - 1 jour
+ 1 jour »
Jour Semaine Mois Année Personnalisé
  Maximum : Minimum : Moyenne :
Température sous abri : TemperatureC °F 3.4 °F 9.4 °F
Point de rosée : DewpointC °F 2.4 °F 8.7 °F
Humidité : Humidity % 92 % 96 %
Vitesse du vent : WindSpeedKMH mph 0.0 mph 12.1 mph
Rafale : WindSpeedGustKMH mph - -
Direction :- - SW
Pression : PressurehPa in 1015.8 in -
Précipitations : 7.1 in    
Historical Graphs
 
 
Tableau de données pour décembre 7, 2017
Heure Tempé Pt rosée Pression Vent Vitesse Rafale Humidité Taux pluie (/hr) Soleil
TemperatureC °F DewpointC °F PressurehPa in Calm     Humidity % HourlyPrecipMM in SolarRadiationWatts/m^2 W/m2 Conditions
00:00 3.4 °F 2.4 °F 1027.0 in South 6.4 mph 20.9 mph 93 % 0.0 in 0 W/m2
00:10 3.4 °F 2.4 °F 1027.0 in South 9.7 mph 17.7 mph 93 % 0.0 in 0 W/m2
00:15 3.5 °F 2.5 °F 1027.0 in SE 9.7 mph 16.1 mph 93 % 0.0 in 0 W/m2
00:20 3.5 °F 2.5 °F 1027.0 in SSE 11.3 mph 16.1 mph 93 % 0.0 in 0 W/m2
00:25 3.5 °F 2.5 °F 1026.6 in SSE 8.0 mph 17.7 mph 93 % 0.0 in 0 W/m2
00:30 3.5 °F 2.5 °F 1026.6 in South 11.3 mph 17.7 mph 93 % 0.0 in 0 W/m2
00:35 3.5 °F 2.5 °F 1026.6 in SE 11.3 mph 16.1 mph 93 % 0.0 in 0 W/m2
00:40 3.6 °F 2.5 °F 1026.3 in SE 14.5 mph 16.1 mph 93 % 0.0 in 0 W/m2
00:45 3.6 °F 2.6 °F 1026.3 in SSE 14.5 mph 16.1 mph 93 % 0.0 in 0 W/m2
00:50 3.7 °F 2.6 °F 1026.3 in South 11.3 mph 16.1 mph 93 % 0.0 in 0 W/m2
00:55 3.7 °F 2.6 °F 1026.3 in South 9.7 mph 16.1 mph 93 % 0.0 in 0 W/m2
01:00 3.7 °F 2.7 °F 1026.0 in SSE 11.3 mph 19.3 mph 93 % 0.0 in 0 W/m2
01:05 3.8 °F 2.7 °F 1026.0 in SSE 11.3 mph 19.3 mph 93 % 0.0 in 0 W/m2
01:10 3.8 °F 2.7 °F 1026.0 in SSE 9.7 mph 17.7 mph 93 % 0.0 in 0 W/m2
01:15 3.8 °F 2.8 °F 1026.0 in SSE 9.7 mph 17.7 mph 93 % 0.0 in 0 W/m2
01:20 3.9 °F 2.9 °F 1026.0 in South 8.0 mph 17.7 mph 93 % 0.0 in 0 W/m2
01:25 3.9 °F 2.9 °F 1025.6 in SSE 8.0 mph 17.7 mph 93 % 0.0 in 0 W/m2
01:30 4.1 °F 3.0 °F 1025.6 in SSW 9.7 mph 16.1 mph 93 % 0.0 in 0 W/m2
01:35 4.2 °F 3.1 °F 1025.6 in SSE 8.0 mph 19.3 mph 93 % 0.0 in 0 W/m2
01:40 4.2 °F 3.1 °F 1025.6 in South 11.3 mph 19.3 mph 93 % 0.0 in 0 W/m2
01:45 4.1 °F 2.9 °F 1025.6 in South 14.5 mph 19.3 mph 92 % 0.0 in 0 W/m2
01:50 4.1 °F 3.0 °F 1025.6 in SSE 16.1 mph 19.3 mph 93 % 0.0 in 0 W/m2
01:55 4.0 °F 3.0 °F 1025.6 in SSW 6.4 mph 17.7 mph 93 % 0.0 in 0 W/m2
02:00 4.0 °F 3.0 °F 1025.6 in SSW 17.7 mph 20.9 mph 93 % 0.0 in 0 W/m2
02:05 3.9 °F 2.8 °F 1025.3 in SSE 6.4 mph 20.9 mph 92 % 0.0 in 0 W/m2
02:10 4.0 °F 3.0 °F 1025.3 in SSE 14.5 mph 25.7 mph 93 % 0.0 in 0 W/m2
02:15 4.1 °F 3.0 °F 1025.3 in SSW 11.3 mph 25.7 mph 93 % 0.0 in 0 W/m2
02:20 4.2 °F 3.1 °F 1024.9 in South 16.1 mph 20.9 mph 93 % 0.0 in 0 W/m2
02:25 4.3 °F 3.2 °F 1024.9 in SE 9.7 mph 22.5 mph 93 % 0.0 in 0 W/m2
02:30 4.4 °F 3.4 °F 1024.9 in South 14.5 mph 22.5 mph 93 % 0.0 in 0 W/m2
02:35 4.5 °F 3.6 °F 1024.9 in SSE 14.5 mph 19.3 mph 94 % 0.0 in 0 W/m2
02:40 4.6 °F 3.7 °F 1024.9 in SSE 14.5 mph 22.5 mph 94 % 0.0 in 0 W/m2
02:45 4.8 °F 3.9 °F 1024.6 in SSE 9.7 mph 22.5 mph 94 % 0.0 in 0 W/m2
02:50 4.9 °F 4.1 °F 1024.6 in South 16.1 mph 22.5 mph 94 % 0.0 in 0 W/m2
02:55 5.2 °F 4.4 °F 1024.6 in SSW 11.3 mph 24.1 mph 95 % 0.0 in 0 W/m2
03:00 5.3 °F 4.6 °F 1024.6 in South 11.3 mph 29.0 mph 95 % 0.0 in 0 W/m2
03:05 5.3 °F 4.6 °F 1024.3 in South 12.9 mph 29.0 mph 95 % 0.0 in 0 W/m2
03:10 5.4 °F 4.7 °F 1024.3 in South 12.9 mph 29.0 mph 95 % 0.0 in 0 W/m2
03:15 5.4 °F 4.7 °F 1024.3 in SE 12.9 mph 29.0 mph 95 % 0.0 in 0 W/m2
03:20 5.5 °F 4.8 °F 1024.3 in SSE 17.7 mph 27.4 mph 95 % 0.0 in 0 W/m2
03:25 5.6 °F 4.8 °F 1024.3 in SSE 19.3 mph 25.7 mph 95 % 0.0 in 0 W/m2
03:30 5.7 °F 5.0 °F 1024.3 in SSE 8.0 mph 29.0 mph 95 % 0.0 in 0 W/m2
03:35 5.8 °F 5.0 °F 1024.3 in SSE 20.9 mph 29.0 mph 95 % 0.0 in 0 W/m2
03:40 5.9 °F 5.1 °F 1024.3 in South 11.3 mph 24.1 mph 95 % 0.0 in 0 W/m2
03:45 6.0 °F 5.3 °F 1023.9 in South 9.7 mph 29.0 mph 95 % 0.0 in 0 W/m2
03:50 6.1 °F 5.4 °F 1023.9 in South 17.7 mph 29.0 mph 95 % 0.0 in 0 W/m2
03:55 6.2 °F 5.4 °F 1023.9 in SSE 11.3 mph 27.4 mph 95 % 0.0 in 0 W/m2
04:00 6.2 °F 5.6 °F 1023.9 in South 8.0 mph 22.5 mph 96 % 0.0 in 0 W/m2
04:05 6.2 °F 5.6 °F 1023.6 in SSW 17.7 mph 25.7 mph 96 % 0.3 in 0 W/m2
04:10 6.3 °F 5.7 °F 1023.6 in South 14.5 mph 25.7 mph 96 % 0.3 in 0 W/m2
04:15 6.4 °F 5.9 °F 1023.6 in South 12.9 mph 22.5 mph 96 % 0.3 in 0 W/m2
04:25 6.7 °F 6.1 °F 1023.6 in South 11.3 mph 29.0 mph 96 % 0.3 in 0 W/m2
04:30 6.7 °F 6.1 °F 1023.6 in South 14.5 mph 25.7 mph 96 % 0.3 in 0 W/m2
04:35 6.8 °F 6.2 °F 1023.6 in South 14.5 mph 22.5 mph 96 % 0.3 in 0 W/m2
04:40 6.8 °F 6.2 °F 1023.2 in SSW 11.3 mph 20.9 mph 96 % 0.3 in 0 W/m2
04:45 6.8 °F 6.2 °F 1023.2 in South 12.9 mph 22.5 mph 96 % 0.3 in 0 W/m2
04:50 6.9 °F 6.3 °F 1023.2 in SSE 6.4 mph 24.1 mph 96 % 0.3 in 0 W/m2
04:55 6.9 °F 6.4 °F 1022.9 in South 12.9 mph 24.1 mph 96 % 0.3 in 0 W/m2
05:05 7.2 °F 6.6 °F 1022.9 in South 17.7 mph 22.5 mph 96 % 0.0 in 0 W/m2
05:10 7.3 °F 6.7 °F 1022.9 in South 16.1 mph 22.5 mph 96 % 0.0 in 0 W/m2
05:15 7.4 °F 6.8 °F 1022.9 in SSE 6.4 mph 20.9 mph 96 % 0.0 in 0 W/m2
05:20 7.6 °F 7.0 °F 1022.9 in South 12.9 mph 20.9 mph 96 % 0.0 in 0 W/m2
05:25 7.7 °F 7.1 °F 1022.6 in SSE 8.0 mph 19.3 mph 96 % 0.0 in 0 W/m2
05:30 7.7 °F 7.1 °F 1022.6 in SSE 9.7 mph 19.3 mph 96 % 0.0 in 0 W/m2
05:35 7.8 °F 7.2 °F 1022.6 in South 8.0 mph 19.3 mph 96 % 0.0 in 0 W/m2
05:40 7.9 °F 7.3 °F 1022.6 in SSE 9.7 mph 20.9 mph 96 % 0.0 in 0 W/m2
05:45 7.9 °F 7.3 °F 1022.2 in SSE 9.7 mph 20.9 mph 96 % 0.0 in 0 W/m2
05:50 8.0 °F 7.4 °F 1022.2 in SSW 16.1 mph 16.1 mph 96 % 0.0 in 0 W/m2
05:55 8.2 °F 7.6 °F 1022.2 in SSW 16.1 mph 20.9 mph 96 % 0.0 in 0 W/m2
06:00 8.6 °F 8.0 °F 1021.9 in South 8.0 mph 20.9 mph 96 % 0.0 in 0 W/m2
06:05 8.7 °F 8.1 °F 1021.9 in SSW 16.1 mph 24.1 mph 96 % 0.0 in 0 W/m2
06:10 8.9 °F 8.3 °F 1021.9 in SSE 6.4 mph 24.1 mph 96 % 0.0 in 0 W/m2
06:15 9.1 °F 8.5 °F 1021.6 in South 11.3 mph 17.7 mph 96 % 0.0 in 0 W/m2
06:20 9.2 °F 8.6 °F 1021.6 in South 6.4 mph 19.3 mph 96 % 0.0 in 0 W/m2
06:25 9.3 °F 8.7 °F 1021.6 in South 14.5 mph 19.3 mph 96 % 0.0 in 0 W/m2
06:30 9.6 °F 9.0 °F 1021.6 in SSW 19.3 mph 22.5 mph 96 % 0.0 in 0 W/m2
06:35 10.1 °F 9.4 °F 1021.2 in SSW 17.7 mph 29.0 mph 96 % 0.0 in 0 W/m2
06:40 10.4 °F 9.8 °F 1021.2 in SSW 11.3 mph 29.0 mph 96 % 0.0 in 0 W/m2
06:45 10.6 °F 9.8 °F 1021.2 in SSE 6.4 mph 32.2 mph 95 % 0.0 in 0 W/m2
06:50 10.6 °F 9.8 °F 1021.2 in South 12.9 mph 32.2 mph 95 % 0.0 in 0 W/m2
06:55 10.7 °F 9.9 °F 1021.2 in SSW 20.9 mph 30.6 mph 95 % 0.0 in 0 W/m2
07:00 10.8 °F 10.0 °F 1021.2 in South 17.7 mph 30.6 mph 95 % 0.0 in 0 W/m2
07:05 10.7 °F 10.0 °F 1020.9 in South 19.3 mph 29.0 mph 95 % 0.0 in 0 W/m2
07:10 10.7 °F 10.0 °F 1020.9 in SSW 19.3 mph 32.2 mph 95 % 0.0 in 0 W/m2
07:15 10.8 °F 10.0 °F 1020.9 in South 16.1 mph 32.2 mph 95 % 0.0 in 0 W/m2
07:20 10.8 °F 10.0 °F 1020.9 in South 16.1 mph 29.0 mph 95 % 0.0 in 0 W/m2
07:25 10.8 °F 10.1 °F 1020.9 in SSW 9.7 mph 29.0 mph 95 % 0.0 in 0 W/m2
07:30 10.8 °F 10.1 °F 1020.9 in SSW 11.3 mph 27.4 mph 95 % 0.0 in 0 W/m2
07:35 10.8 °F 10.1 °F 1020.5 in SSW 14.5 mph 27.4 mph 95 % 0.0 in 0 W/m2
07:40 10.9 °F 10.2 °F 1020.5 in SW 22.5 mph 29.0 mph 95 % 0.0 in 0 W/m2
07:45 11.0 °F 10.2 °F 1020.5 in South 8.0 mph 35.4 mph 95 % 0.0 in 0 W/m2
07:50 11.1 °F 10.3 °F 1020.5 in SSW 20.9 mph 35.4 mph 95 % 0.0 in 0 W/m2
07:55 11.1 °F 10.3 °F 1020.5 in SSW 12.9 mph 33.8 mph 95 % 0.0 in 0 W/m2
08:00 11.2 °F 10.4 °F 1020.5 in SSW 12.9 mph 29.0 mph 95 % 0.0 in 0 W/m2
08:05 11.2 °F 10.5 °F 1020.5 in SSW 17.7 mph 29.0 mph 95 % 0.0 in 0 W/m2
08:10 11.3 °F 10.7 °F 1020.2 in South 14.5 mph 30.6 mph 96 % 0.3 in 0 W/m2
08:15 11.3 °F 10.7 °F 1020.2 in SW 11.3 mph 30.6 mph 96 % 0.3 in 0 W/m2
08:20 11.4 °F 10.8 °F 1020.2 in South 16.1 mph 30.6 mph 96 % 0.3 in 0 W/m2
08:25 11.4 °F 10.8 °F 1020.2 in South 16.1 mph 30.6 mph 96 % 0.3 in 0 W/m2
08:30 11.4 °F 10.8 °F 1020.2 in SSW 11.3 mph 27.4 mph 96 % 0.3 in 0 W/m2
08:35 11.5 °F 10.9 °F 1019.9 in SSW 9.7 mph 25.7 mph 96 % 0.3 in 0 W/m2
08:40 11.5 °F 10.9 °F 1019.9 in SSW 14.5 mph 25.7 mph 96 % 0.3 in 0 W/m2
08:45 11.4 °F 10.8 °F 1019.9 in SSE 22.5 mph 25.7 mph 96 % 0.3 in 0 W/m2
08:50 11.3 °F 10.6 °F 1019.9 in SSW 16.1 mph 29.0 mph 95 % 0.3 in 0 W/m2
08:55 11.3 °F 10.6 °F 1019.9 in South 11.3 mph 29.0 mph 95 % 0.3 in 0 W/m2
09:00 11.3 °F 10.6 °F 1019.9 in South 20.9 mph 25.7 mph 95 % 0.5 in 0 W/m2
09:05 11.3 °F 10.7 °F 1019.5 in SSW 12.9 mph 25.7 mph 96 % 0.5 in 0 W/m2
09:10 11.4 °F 10.8 °F 1019.5 in SSW 14.5 mph 33.8 mph 96 % 0.3 in 0 W/m2
09:15 11.4 °F 10.8 °F 1019.5 in SSW 12.9 mph 33.8 mph 96 % 0.3 in 0 W/m2
09:20 11.4 °F 10.8 °F 1019.5 in SW 14.5 mph 32.2 mph 96 % 0.3 in 9 W/m2
09:25 11.4 °F 10.8 °F 1019.5 in SSW 16.1 mph 32.2 mph 96 % 0.3 in 12 W/m2
09:30 11.4 °F 10.8 °F 1019.5 in South 17.7 mph 30.6 mph 96 % 0.3 in 7 W/m2
09:40 11.5 °F 10.9 °F 1019.5 in South 9.7 mph 29.0 mph 96 % 0.8 in 7 W/m2
09:45 11.6 °F 10.9 °F 1019.2 in SSW 14.5 mph 37.0 mph 96 % 1.0 in 11 W/m2
09:50 11.6 °F 11.0 °F 1019.5 in SW 8.0 mph 37.0 mph 96 % 1.3 in 9 W/m2
09:55 11.6 °F 11.0 °F 1019.5 in SSW 17.7 mph 29.0 mph 96 % 1.5 in 7 W/m2
10:00 11.6 °F 11.2 °F 1019.5 in SW 20.9 mph 29.0 mph 97 % 1.5 in 11 W/m2
10:05 11.7 °F 11.2 °F 1019.2 in SW 24.1 mph 43.4 mph 97 % 1.8 in 21 W/m2
10:10 11.7 °F 11.3 °F 1019.2 in SW 16.1 mph 43.4 mph 97 % 2.0 in 14 W/m2
10:15 11.8 °F 11.3 °F 1019.5 in SSW 16.1 mph 32.2 mph 97 % 2.3 in 7 W/m2
10:20 11.8 °F 11.4 °F 1019.2 in West 17.7 mph 32.2 mph 97 % 2.8 in 5 W/m2
10:25 11.8 °F 11.4 °F 1019.2 in SSW 16.1 mph 33.8 mph 97 % 3.0 in 9 W/m2
10:30 11.9 °F 11.5 °F 1018.8 in SW 8.0 mph 33.8 mph 97 % 3.3 in 12 W/m2
10:40 12.1 °F 11.6 °F 1018.8 in South 19.3 mph 30.6 mph 97 % 2.8 in 11 W/m2
10:45 12.1 °F 11.6 °F 1018.8 in WSW 11.3 mph 37.0 mph 97 % 2.8 in 16 W/m2
10:50 12.1 °F 11.6 °F 1018.8 in South 8.0 mph 37.0 mph 97 % 2.3 in 19 W/m2
10:55 12.1 °F 11.6 °F 1018.8 in SSW 20.9 mph 32.2 mph 97 % 2.3 in 21 W/m2
11:00 12.1 °F 11.6 °F 1018.8 in SSW 14.5 mph 30.6 mph 97 % 2.3 in 28 W/m2
11:05 12.2 °F 11.7 °F 1018.8 in South 14.5 mph 33.8 mph 97 % 2.0 in 18 W/m2
11:10 12.2 °F 11.7 °F 1018.8 in SW 14.5 mph 33.8 mph 97 % 2.3 in 21 W/m2
11:15 12.2 °F 11.8 °F 1018.8 in WSW 17.7 mph 29.0 mph 97 % 2.3 in 21 W/m2
11:20 12.3 °F 11.8 °F 1018.8 in WNW 17.7 mph 33.8 mph 97 % 2.0 in 16 W/m2
11:25 12.3 °F 11.8 °F 1018.5 in SSW 9.7 mph 33.8 mph 97 % 1.8 in 14 W/m2
11:30 12.3 °F 11.9 °F 1018.5 in WSW 14.5 mph 29.0 mph 97 % 1.5 in 14 W/m2
11:35 12.4 °F 11.9 °F 1018.5 in SSW 22.5 mph 29.0 mph 97 % 1.5 in 14 W/m2
11:40 12.4 °F 12.0 °F 1018.5 in West 12.9 mph 35.4 mph 97 % 1.3 in 30 W/m2
11:50 12.4 °F 12.0 °F 1018.5 in SSW 14.5 mph 35.4 mph 97 % 1.3 in 39 W/m2
11:55 12.5 °F 12.0 °F 1018.5 in South 11.3 mph 33.8 mph 97 % 1.0 in 42 W/m2
12:00 12.5 °F 12.0 °F 1018.2 in SSW 14.5 mph 29.0 mph 97 % 1.0 in 30 W/m2
12:05 12.5 °F 12.2 °F 1018.2 in WSW 8.0 mph 32.2 mph 98 % 1.0 in 16 W/m2
12:10 12.6 °F 12.2 °F 1017.8 in WSW 16.1 mph 32.2 mph 98 % 0.5 in 18 W/m2
12:15 12.6 °F 12.2 °F 1017.8 in WSW 17.7 mph 30.6 mph 98 % 0.5 in 18 W/m2
12:20 12.6 °F 12.2 °F 1017.8 in WSW 14.5 mph 29.0 mph 98 % 0.5 in 16 W/m2
12:25 12.5 °F 12.2 °F 1017.8 in SW 1.6 mph 25.7 mph 98 % 0.5 in 21 W/m2
12:30 12.5 °F 12.0 °F 1017.8 in WSW 14.5 mph 29.0 mph 97 % 0.5 in 32 W/m2
12:35 12.6 °F 12.1 °F 1017.5 in SW 8.0 mph 29.0 mph 97 % 0.5 in 35 W/m2
12:40 12.6 °F 12.2 °F 1017.5 in SW 9.7 mph 29.0 mph 98 % 0.5 in 23 W/m2
12:45 12.6 °F 12.3 °F 1017.5 in West 8.0 mph 29.0 mph 98 % 0.5 in 21 W/m2
12:50 12.6 °F 12.2 °F 1017.5 in SW 14.5 mph 29.0 mph 98 % 0.5 in 14 W/m2
12:55 12.6 °F 12.1 °F 1017.2 in SW 16.1 mph 30.6 mph 97 % 0.5 in 26 W/m2
13:05 12.6 °F 12.1 °F 1017.2 in SW 14.5 mph 35.4 mph 97 % 0.5 in 60 W/m2
13:10 12.6 °F 12.3 °F 1017.2 in WSW 22.5 mph 30.6 mph 98 % 0.5 in 135 W/m2
13:15 12.7 °F 12.4 °F 1017.2 in SW 20.9 mph 35.4 mph 98 % 0.5 in 102 W/m2
13:20 12.8 °F 12.5 °F 1017.2 in West 19.3 mph 43.4 mph 98 % 0.3 in 120 W/m2
13:30 13.0 °F 12.7 °F 1016.8 in WNW 9.7 mph 35.4 mph 98 % 0.0 in 65 W/m2
13:35 13.0 °F 12.7 °F 1016.8 in West 11.3 mph 35.4 mph 98 % 0.0 in 60 W/m2
13:40 12.9 °F 12.4 °F 1016.8 in West 4.8 mph 30.6 mph 97 % 0.0 in 53 W/m2
13:45 12.8 °F 12.4 °F 1016.5 in WSW 17.7 mph 29.0 mph 97 % 0.0 in 35 W/m2
13:50 12.9 °F 12.6 °F 1016.5 in SSW 6.4 mph 29.0 mph 98 % 0.0 in 28 W/m2
13:55 12.8 °F 12.5 °F 1016.5 in SW 16.1 mph 29.0 mph 98 % 0.0 in 26 W/m2
14:00 12.8 °F 12.4 °F 1016.5 in West 17.7 mph 25.7 mph 97 % 0.0 in 26 W/m2
14:05 12.8 °F 12.3 °F 1016.5 in South 9.7 mph 27.4 mph 97 % 0.0 in 44 W/m2
14:10 12.9 °F 12.6 °F 1016.5 in West 30.6 mph 30.6 mph 98 % 0.0 in 40 W/m2
14:15 12.9 °F 12.6 °F 1016.5 in WSW 25.7 mph 30.6 mph 98 % 0.3 in 30 W/m2
14:20 12.9 °F 12.6 °F 1016.5 in West 14.5 mph 30.6 mph 98 % 0.3 in 53 W/m2
14:25 12.8 °F 12.4 °F 1016.5 in WNW 12.9 mph 30.6 mph 97 % 0.5 in 49 W/m2
14:30 12.8 °F 12.5 °F 1016.1 in WNW 6.4 mph 24.1 mph 98 % 0.5 in 44 W/m2
14:35 12.9 °F 12.6 °F 1016.1 in SSW 11.3 mph 27.4 mph 98 % 0.5 in 47 W/m2
14:40 12.8 °F 12.5 °F 1016.1 in West 16.1 mph 27.4 mph 98 % 0.5 in 32 W/m2
14:45 12.8 °F 12.5 °F 1016.1 in SW 19.3 mph 27.4 mph 98 % 0.5 in 35 W/m2
14:50 12.8 °F 12.5 °F 1016.1 in West 9.7 mph 27.4 mph 98 % 0.8 in 32 W/m2
14:55 12.8 °F 12.5 °F 1015.8 in WSW 12.9 mph 29.0 mph 98 % 0.8 in 39 W/m2
15:00 12.8 °F 12.5 °F 1016.1 in West 12.9 mph 29.0 mph 98 % 1.0 in 35 W/m2
15:05 12.8 °F 12.5 °F 1015.8 in SW 17.7 mph 29.0 mph 98 % 1.0 in 28 W/m2
15:10 12.8 °F 12.5 °F 1015.8 in NW 12.9 mph 33.8 mph 98 % 1.0 in 39 W/m2
15:15 12.7 °F 12.4 °F 1015.8 in WSW 16.1 mph 33.8 mph 98 % 0.8 in 37 W/m2
15:25 12.6 °F 12.3 °F 1015.8 in West 16.1 mph 25.7 mph 98 % 0.5 in 42 W/m2
15:30 12.6 °F 12.3 °F 1015.8 in WNW 12.9 mph 30.6 mph 98 % 0.5 in 40 W/m2
15:35 12.6 °F 12.3 °F 1015.8 in West 14.5 mph 30.6 mph 98 % 0.5 in 37 W/m2
15:40 12.6 °F 12.3 °F 1015.8 in WNW 4.8 mph 29.0 mph 98 % 0.5 in 44 W/m2
15:50 12.6 °F 12.2 °F 1015.8 in NW 6.4 mph 27.4 mph 98 % 0.5 in 33 W/m2
15:55 12.6 °F 12.2 °F 1015.8 in WNW 12.9 mph 29.0 mph 98 % 0.5 in 25 W/m2
16:00 12.6 °F 12.2 °F 1015.8 in WNW 14.5 mph 29.0 mph 98 % 0.3 in 25 W/m2
16:05 12.5 °F 12.2 °F 1015.8 in West 16.1 mph 25.7 mph 98 % 0.3 in 39 W/m2
16:10 12.4 °F 12.1 °F 1015.8 in West 6.4 mph 25.7 mph 98 % 0.3 in 47 W/m2
16:20 12.2 °F 11.9 °F 1015.8 in West 11.3 mph 17.7 mph 98 % 0.3 in 54 W/m2
16:25 12.1 °F 11.8 °F 1016.1 in WNW 6.4 mph 16.1 mph 98 % 0.3 in 56 W/m2
16:30 11.9 °F 11.6 °F 1016.1 in West 8.0 mph 14.5 mph 98 % 0.0 in 40 W/m2
16:40 11.6 °F 11.3 °F 1015.8 in WNW 1.6 mph 17.7 mph 98 % 0.0 in 23 W/m2
16:45 11.4 °F 11.1 °F 1015.8 in West 8.0 mph 19.3 mph 98 % 0.0 in 21 W/m2
16:50 11.3 °F 11.0 °F 1016.1 in West 9.7 mph 19.3 mph 98 % 0.0 in 18 W/m2
16:55 11.2 °F 10.9 °F 1016.1 in West 8.0 mph 16.1 mph 98 % 0.0 in 18 W/m2
17:05 11.0 °F 10.7 °F 1016.1 in NW 17.7 mph 22.5 mph 98 % 0.0 in 16 W/m2
17:10 11.0 °F 10.7 °F 1016.5 in WNW 6.4 mph 22.5 mph 98 % 0.0 in 9 W/m2
17:15 10.9 °F 10.6 °F 1016.5 in West 11.3 mph 20.9 mph 98 % 0.0 in 5 W/m2
17:20 10.9 °F 10.6 °F 1016.5 in West 8.0 mph 20.9 mph 98 % 0.0 in 0 W/m2
17:25 10.9 °F 10.6 °F 1016.5 in NW 4.8 mph 19.3 mph 98 % 0.0 in 0 W/m2
17:30 11.0 °F 10.7 °F 1016.5 in WNW 6.4 mph 20.9 mph 98 % 0.0 in 0 W/m2
17:40 11.1 °F 10.8 °F 1017.2 in West 14.5 mph 27.4 mph 98 % 0.0 in 0 W/m2
17:45 11.1 °F 10.8 °F 1017.2 in WNW 14.5 mph 27.4 mph 98 % 0.0 in 0 W/m2
17:50 11.1 °F 10.8 °F 1017.2 in WNW 11.3 mph 27.4 mph 98 % 0.0 in 0 W/m2
18:00 11.0 °F 10.5 °F 1017.2 in NW 12.9 mph 30.6 mph 97 % 0.0 in 0 W/m2
18:10 10.8 °F 10.3 °F 1017.5 in NW 8.0 mph 24.1 mph 97 % 0.0 in 0 W/m2
18:15 10.7 °F 10.3 °F 1017.5 in WNW 6.4 mph 24.1 mph 97 % 0.0 in 0 W/m2
18:30 10.6 °F 10.2 °F 1017.5 in WNW 4.8 mph 20.9 mph 97 % 0.0 in 0 W/m2
18:35 10.6 °F 10.1 °F 1017.2 in NW 16.1 mph 19.3 mph 97 % 0.0 in 0 W/m2
18:40 10.6 °F 10.1 °F 1017.2 in WNW 11.3 mph 17.7 mph 97 % 0.0 in 0 W/m2
18:50 10.5 °F 10.0 °F 1017.2 in NW 6.4 mph 16.1 mph 97 % 0.0 in 0 W/m2
18:55 10.5 °F 10.0 °F 1017.2 in West 9.7 mph 17.7 mph 97 % 0.0 in 0 W/m2
19:00 10.5 °F 10.0 °F 1017.2 in WNW 6.4 mph 19.3 mph 97 % 0.0 in 0 W/m2
19:05 10.5 °F 10.0 °F 1017.2 in WNW 9.7 mph 19.3 mph 97 % 0.0 in 0 W/m2
19:10 10.5 °F 10.0 °F 1017.2 in NW 9.7 mph 22.5 mph 97 % 0.0 in 0 W/m2
19:15 10.5 °F 10.0 °F 1017.5 in NW 8.0 mph 22.5 mph 97 % 0.0 in 0 W/m2
19:20 10.5 °F 10.0 °F 1017.8 in WNW 16.1 mph 24.1 mph 97 % 0.0 in 0 W/m2
19:25 10.5 °F 10.0 °F 1017.8 in WNW 16.1 mph 24.1 mph 97 % 0.0 in 0 W/m2
19:30 10.4 °F 10.0 °F 1017.8 in NW 17.7 mph 24.1 mph 97 % 0.0 in 0 W/m2
19:45 10.3 °F 9.8 °F 1018.2 in NW 6.4 mph 19.3 mph 97 % 0.0 in 0 W/m2
19:50 10.2 °F 9.8 °F 1018.2 in North 11.3 mph 19.3 mph 97 % 0.0 in 0 W/m2
19:55 10.2 °F 9.7 °F 1018.2 in NNW 4.8 mph 19.3 mph 97 % 0.0 in 0 W/m2
20:05 10.1 °F 9.6 °F 1018.2 in NW 8.0 mph 14.5 mph 97 % 0.0 in 0 W/m2
20:10 10.0 °F 9.5 °F 1018.2 in NNW 6.4 mph 17.7 mph 97 % 0.0 in 0 W/m2
20:15 9.9 °F 9.5 °F 1018.2 in WNW 6.4 mph 17.7 mph 97 % 0.0 in 0 W/m2
20:25 9.7 °F 9.2 °F 1018.2 in West 4.8 mph 17.7 mph 97 % 0.0 in 0 W/m2
20:40 9.6 °F 9.1 °F 1018.5 in WNW 8.0 mph 14.5 mph 97 % 0.0 in 0 W/m2
20:45 9.4 °F 9.0 °F 1018.5 in NW 11.3 mph 16.1 mph 97 % 0.0 in 0 W/m2
20:50 9.3 °F 8.7 °F 1018.8 in NW 14.5 mph 20.9 mph 96 % 0.0 in 0 W/m2
20:55 9.1 °F 8.5 °F 1018.8 in NNW 17.7 mph 20.9 mph 96 % 0.0 in 0 W/m2
21:00 8.9 °F 8.3 °F 1018.8 in NW 6.4 mph 24.1 mph 96 % 0.0 in 0 W/m2
21:10 8.8 °F 8.0 °F 1019.2 in NW 11.3 mph 22.5 mph 95 % 0.0 in 0 W/m2
21:15 8.6 °F 7.9 °F 1019.2 in NW 6.4 mph 20.9 mph 95 % 0.0 in 0 W/m2
21:25 8.4 °F 7.7 °F 1019.5 in NNW 9.7 mph 24.1 mph 95 % 0.0 in 0 W/m2
21:30 8.3 °F 7.6 °F 1019.5 in WNW 6.4 mph 19.3 mph 95 % 0.0 in 0 W/m2
21:35 8.3 °F 7.5 °F 1019.5 in NNW 9.7 mph 16.1 mph 95 % 0.0 in 0 W/m2
21:40 8.2 °F 7.3 °F 1019.5 in NW 9.7 mph 19.3 mph 94 % 0.0 in 0 W/m2
21:45 8.0 °F 7.1 °F 1019.5 in NW 1.6 mph 19.3 mph 94 % 0.0 in 0 W/m2
21:55 7.7 °F 6.8 °F 1019.9 in NNW 8.0 mph 22.5 mph 94 % 0.0 in 0 W/m2
22:05 7.4 °F 6.4 °F 1019.9 in NNE 8.0 mph 19.3 mph 93 % 0.0 in 0 W/m2
22:15 7.1 °F 6.2 °F 1020.2 in WNW 4.8 mph 17.7 mph 94 % 0.0 in 0 W/m2
22:20 7.1 °F 6.2 °F 1019.9 in NNW 14.5 mph 17.7 mph 94 % 0.0 in 0 W/m2
22:25 7.1 °F 6.2 °F 1020.2 in NW 9.7 mph 17.7 mph 94 % 0.0 in 0 W/m2
22:30 7.3 °F 6.4 °F 1020.2 in NW 4.8 mph 16.1 mph 94 % 0.0 in 0 W/m2
22:35 7.3 °F 6.4 °F 1020.2 in NW 6.4 mph 14.5 mph 94 % 0.0 in 0 W/m2
22:38 7.3 °F 6.4 °F 1020.2 in WNW 4.8 mph 11.3 mph 94 % 0.0 in 0 W/m2
22:49 7.3 °F 6.4 °F 1020.2 in NW 9.7 mph 11.3 mph 94 % 0.0 in 0 W/m2
22:55 7.1 °F 6.0 °F 1020.2 in NW 6.4 mph 11.3 mph 93 % 0.0 in 0 W/m2
23:10 7.1 °F 6.2 °F 1020.2 in WNW 3.2 mph 11.3 mph 94 % 0.0 in 0 W/m2
23:20 7.1 °F 6.2 °F 1020.2 in Calm   8.0 mph 94 % 0.0 in 0 W/m2
23:25 7.2 °F 6.3 °F 1020.2 in NW 6.4 mph 9.7 mph 94 % 0.0 in 0 W/m2
23:30 7.2 °F 6.3 °F 1020.2 in WNW 6.4 mph 11.3 mph 94 % 0.0 in 0 W/m2
23:35 7.3 °F 6.4 °F 1020.2 in NW 4.8 mph 11.3 mph 94 % 0.0 in 0 W/m2
23:40 7.3 °F 6.3 °F 1020.2 in NW 1.6 mph 9.7 mph 93 % 0.0 in 0 W/m2
23:45 7.2 °F 6.2 °F 1020.2 in WNW 9.7 mph 11.3 mph 93 % 0.0 in 0 W/m2
23:50 7.1 °F 6.1 °F 1020.2 in NNW 6.4 mph 11.3 mph 93 % 0.0 in 0 W/m2
23:55 7.1 °F 6.0 °F 1020.2 in WNW 6.4 mph 14.5 mph 93 % 0.0 in 0 W/m2
Avec l'autorisation de Weather Underground - 1.5 mb